sensor_id;sensor_type;location;lat;lon;timestamp;P1;durP1;ratioP1;P2;durP2;ratioP2
18999;SDS011;9633;50.980;13.850;2022-07-11T00:01:25;5.00;;;1.67;;
18999;SDS011;9633;50.980;13.850;2022-07-11T00:02:58;5.30;;;1.20;;
18999;SDS011;9633;50.980;13.850;2022-07-11T00:04:32;4.03;;;1.30;;
18999;SDS011;9633;50.980;13.850;2022-07-11T00:06:05;2.60;;;1.20;;
18999;SDS011;9633;50.980;13.850;2022-07-11T00:07:39;3.47;;;1.40;;
18999;SDS011;9633;50.980;13.850;2022-07-11T00:09:12;3.47;;;1.40;;
18999;SDS011;9633;50.980;13.850;2022-07-11T00:10:45;5.17;;;1.37;;
18999;SDS011;9633;50.980;13.850;2022-07-11T00:12:18;7.47;;;1.57;;
18999;SDS011;9633;50.980;13.850;2022-07-11T00:13:53;4.83;;;1.40;;
18999;SDS011;9633;50.980;13.850;2022-07-11T00:15:26;3.47;;;1.40;;
18999;SDS011;9633;50.980;13.850;2022-07-11T00:16:59;4.77;;;1.80;;
18999;SDS011;9633;50.980;13.850;2022-07-11T00:18:32;4.43;;;1.53;;
18999;SDS011;9633;50.980;13.850;2022-07-11T00:20:06;4.03;;;1.50;;
18999;SDS011;9633;50.980;13.850;2022-07-11T00:21:39;2.30;;;1.70;;
18999;SDS011;9633;50.980;13.850;2022-07-11T00:23:14;2.87;;;1.10;;
18999;SDS011;9633;50.980;13.850;2022-07-11T00:24:47;2.90;;;1.67;;
18999;SDS011;9633;50.980;13.850;2022-07-11T00:26:20;5.80;;;1.70;;
18999;SDS011;9633;50.980;13.850;2022-07-11T00:27:53;2.70;;;1.30;;
18999;SDS011;9633;50.980;13.850;2022-07-11T00:29:26;3.10;;;1.33;;
18999;SDS011;9633;50.980;13.850;2022-07-11T00:31:00;3.37;;;1.20;;
18999;SDS011;9633;50.980;13.850;2022-07-11T00:32:33;5.07;;;1.47;;
18999;SDS011;9633;50.980;13.850;2022-07-11T00:34:07;3.90;;;1.37;;
18999;SDS011;9633;50.980;13.850;2022-07-11T00:35:39;2.60;;;1.40;;
18999;SDS011;9633;50.980;13.850;2022-07-11T00:37:13;3.27;;;1.30;;
18999;SDS011;9633;50.980;13.850;2022-07-11T00:38:46;4.83;;;1.70;;
18999;SDS011;9633;50.980;13.850;2022-07-11T00:40:20;3.60;;;1.70;;
18999;SDS011;9633;50.980;13.850;2022-07-11T00:41:53;3.73;;;1.40;;
18999;SDS011;9633;50.980;13.850;2022-07-11T00:43:29;3.73;;;1.17;;
18999;SDS011;9633;50.980;13.850;2022-07-11T00:45:03;2.50;;;1.40;;
18999;SDS011;9633;50.980;13.850;2022-07-11T00:46:36;4.77;;;1.40;;
18999;SDS011;9633;50.980;13.850;2022-07-11T00:48:10;3.53;;;1.50;;
18999;SDS011;9633;50.980;13.850;2022-07-11T00:49:44;2.87;;;1.37;;
18999;SDS011;9633;50.980;13.850;2022-07-11T00:51:17;5.90;;;1.40;;
18999;SDS011;9633;50.980;13.850;2022-07-11T00:52:52;4.80;;;1.57;;
18999;SDS011;9633;50.980;13.850;2022-07-11T00:54:28;5.13;;;1.60;;
18999;SDS011;9633;50.980;13.850;2022-07-11T00:56:02;4.10;;;1.43;;
18999;SDS011;9633;50.980;13.850;2022-07-11T00:57:36;1.30;;;1.20;;
18999;SDS011;9633;50.980;13.850;2022-07-11T00:59:10;2.77;;;1.60;;
18999;SDS011;9633;50.980;13.850;2022-07-11T01:00:43;5.20;;;1.60;;
18999;SDS011;9633;50.980;13.850;2022-07-11T01:02:17;2.90;;;1.47;;
18999;SDS011;9633;50.980;13.850;2022-07-11T01:03:50;3.77;;;1.43;;
18999;SDS011;9633;50.980;13.850;2022-07-11T01:05:24;3.90;;;1.47;;
18999;SDS011;9633;50.980;13.850;2022-07-11T01:06:58;5.50;;;1.47;;
18999;SDS011;9633;50.980;13.850;2022-07-11T01:08:31;3.13;;;1.50;;
18999;SDS011;9633;50.980;13.850;2022-07-11T01:10:08;5.10;;;1.80;;
18999;SDS011;9633;50.980;13.850;2022-07-11T01:11:41;2.77;;;1.47;;
18999;SDS011;9633;50.980;13.850;2022-07-11T01:13:14;3.87;;;1.53;;
18999;SDS011;9633;50.980;13.850;2022-07-11T01:14:50;3.53;;;1.83;;
18999;SDS011;9633;50.980;13.850;2022-07-11T01:16:24;3.07;;;1.30;;
18999;SDS011;9633;50.980;13.850;2022-07-11T01:17:58;4.50;;;1.53;;
18999;SDS011;9633;50.980;13.850;2022-07-11T01:19:30;3.83;;;1.57;;
18999;SDS011;9633;50.980;13.850;2022-07-11T01:21:04;5.67;;;1.80;;
18999;SDS011;9633;50.980;13.850;2022-07-11T01:22:43;5.03;;;1.87;;
18999;SDS011;9633;50.980;13.850;2022-07-11T01:24:21;3.87;;;1.70;;
18999;SDS011;9633;50.980;13.850;2022-07-11T01:25:55;2.87;;;1.60;;
18999;SDS011;9633;50.980;13.850;2022-07-11T01:27:27;4.77;;;1.43;;
18999;SDS011;9633;50.980;13.850;2022-07-11T01:29:05;4.30;;;1.50;;
18999;SDS011;9633;50.980;13.850;2022-07-11T01:30:39;5.90;;;1.60;;
18999;SDS011;9633;50.980;13.850;2022-07-11T01:32:11;5.67;;;1.50;;
18999;SDS011;9633;50.980;13.850;2022-07-11T01:33:45;3.97;;;1.40;;
18999;SDS011;9633;50.980;13.850;2022-07-11T01:35:18;3.40;;;1.57;;
18999;SDS011;9633;50.980;13.850;2022-07-11T01:36:52;4.27;;;1.50;;
18999;SDS011;9633;50.980;13.850;2022-07-11T01:38:25;4.90;;;1.87;;
18999;SDS011;9633;50.980;13.850;2022-07-11T01:39:58;8.00;;;1.80;;
18999;SDS011;9633;50.980;13.850;2022-07-11T01:41:31;6.37;;;1.80;;
18999;SDS011;9633;50.980;13.850;2022-07-11T01:43:05;3.57;;;1.50;;
18999;SDS011;9633;50.980;13.850;2022-07-11T01:44:37;5.23;;;1.80;;
18999;SDS011;9633;50.980;13.850;2022-07-11T01:46:10;5.93;;;1.63;;
18999;SDS011;9633;50.980;13.850;2022-07-11T01:47:43;4.93;;;1.60;;
18999;SDS011;9633;50.980;13.850;2022-07-11T01:49:16;3.87;;;1.70;;
18999;SDS011;9633;50.980;13.850;2022-07-11T01:50:49;6.97;;;1.60;;
18999;SDS011;9633;50.980;13.850;2022-07-11T01:52:22;3.60;;;1.37;;
18999;SDS011;9633;50.980;13.850;2022-07-11T01:53:55;4.17;;;1.60;;
18999;SDS011;9633;50.980;13.850;2022-07-11T01:55:30;4.73;;;1.80;;
18999;SDS011;9633;50.980;13.850;2022-07-11T01:57:09;4.43;;;1.53;;
18999;SDS011;9633;50.980;13.850;2022-07-11T01:58:43;3.50;;;1.57;;
18999;SDS011;9633;50.980;13.850;2022-07-11T02:00:16;4.37;;;1.77;;
18999;SDS011;9633;50.980;13.850;2022-07-11T02:01:49;3.33;;;1.60;;
18999;SDS011;9633;50.980;13.850;2022-07-11T02:03:22;7.23;;;2.00;;
18999;SDS011;9633;50.980;13.850;2022-07-11T02:04:55;3.33;;;1.40;;
18999;SDS011;9633;50.980;13.850;2022-07-11T02:06:28;5.47;;;1.70;;
18999;SDS011;9633;50.980;13.850;2022-07-11T02:08:02;5.57;;;1.60;;
18999;SDS011;9633;50.980;13.850;2022-07-11T02:09:43;2.37;;;1.70;;
18999;SDS011;9633;50.980;13.850;2022-07-11T02:11:17;6.10;;;1.80;;
18999;SDS011;9633;50.980;13.850;2022-07-11T02:12:50;4.10;;;1.83;;
18999;SDS011;9633;50.980;13.850;2022-07-11T02:14:22;5.70;;;1.80;;
18999;SDS011;9633;50.980;13.850;2022-07-11T02:15:55;6.93;;;1.90;;
18999;SDS011;9633;50.980;13.850;2022-07-11T02:17:35;4.23;;;1.80;;
18999;SDS011;9633;50.980;13.850;2022-07-11T02:19:07;4.30;;;2.03;;
18999;SDS011;9633;50.980;13.850;2022-07-11T02:20:42;3.17;;;2.10;;
18999;SDS011;9633;50.980;13.850;2022-07-11T02:22:17;3.97;;;1.77;;
18999;SDS011;9633;50.980;13.850;2022-07-11T02:23:50;6.07;;;2.10;;
18999;SDS011;9633;50.980;13.850;2022-07-11T02:25:23;3.57;;;1.90;;
18999;SDS011;9633;50.980;13.850;2022-07-11T02:26:57;2.57;;;1.50;;
18999;SDS011;9633;50.980;13.850;2022-07-11T02:28:30;2.97;;;1.67;;
18999;SDS011;9633;50.980;13.850;2022-07-11T02:30:03;3.27;;;1.67;;
18999;SDS011;9633;50.980;13.850;2022-07-11T02:31:36;2.70;;;1.60;;
18999;SDS011;9633;50.980;13.850;2022-07-11T02:33:10;3.97;;;1.70;;
18999;SDS011;9633;50.980;13.850;2022-07-11T02:34:45;4.17;;;1.80;;
18999;SDS011;9633;50.980;13.850;2022-07-11T02:36:18;3.63;;;1.90;;
18999;SDS011;9633;50.980;13.850;2022-07-11T02:37:51;3.43;;;1.73;;
18999;SDS011;9633;50.980;13.850;2022-07-11T02:39:24;4.93;;;1.70;;
18999;SDS011;9633;50.980;13.850;2022-07-11T02:40:57;5.43;;;1.77;;
18999;SDS011;9633;50.980;13.850;2022-07-11T02:42:32;3.83;;;1.90;;
18999;SDS011;9633;50.980;13.850;2022-07-11T02:44:04;8.03;;;2.03;;
18999;SDS011;9633;50.980;13.850;2022-07-11T02:45:38;3.67;;;1.87;;
18999;SDS011;9633;50.980;13.850;2022-07-11T02:47:11;3.27;;;1.67;;
18999;SDS011;9633;50.980;13.850;2022-07-11T02:48:45;8.13;;;1.97;;
18999;SDS011;9633;50.980;13.850;2022-07-11T02:50:18;3.30;;;1.80;;
18999;SDS011;9633;50.980;13.850;2022-07-11T02:51:51;4.40;;;2.20;;
18999;SDS011;9633;50.980;13.850;2022-07-11T02:53:24;4.83;;;1.90;;
18999;SDS011;9633;50.980;13.850;2022-07-11T02:54:58;4.30;;;1.70;;
18999;SDS011;9633;50.980;13.850;2022-07-11T02:56:31;4.60;;;1.73;;
18999;SDS011;9633;50.980;13.850;2022-07-11T02:58:05;5.07;;;1.90;;
18999;SDS011;9633;50.980;13.850;2022-07-11T02:59:39;3.17;;;1.73;;
18999;SDS011;9633;50.980;13.850;2022-07-11T03:01:10;4.33;;;2.23;;
18999;SDS011;9633;50.980;13.850;2022-07-11T03:02:43;4.40;;;1.63;;
18999;SDS011;9633;50.980;13.850;2022-07-11T03:04:17;3.50;;;2.10;;
18999;SDS011;9633;50.980;13.850;2022-07-11T03:05:49;3.53;;;1.60;;
18999;SDS011;9633;50.980;13.850;2022-07-11T03:07:22;6.03;;;1.90;;
18999;SDS011;9633;50.980;13.850;2022-07-11T03:08:55;3.57;;;1.70;;
18999;SDS011;9633;50.980;13.850;2022-07-11T03:10:28;3.03;;;1.53;;
18999;SDS011;9633;50.980;13.850;2022-07-11T03:12:02;4.10;;;1.70;;
18999;SDS011;9633;50.980;13.850;2022-07-11T03:13:36;7.33;;;2.10;;
18999;SDS011;9633;50.980;13.850;2022-07-11T03:15:10;3.47;;;1.80;;
18999;SDS011;9633;50.980;13.850;2022-07-11T03:16:44;6.17;;;2.63;;
18999;SDS011;9633;50.980;13.850;2022-07-11T03:18:16;4.37;;;1.87;;
18999;SDS011;9633;50.980;13.850;2022-07-11T03:19:49;5.03;;;1.83;;
18999;SDS011;9633;50.980;13.850;2022-07-11T03:21:22;6.30;;;2.00;;
18999;SDS011;9633;50.980;13.850;2022-07-11T03:22:55;3.73;;;1.70;;
18999;SDS011;9633;50.980;13.850;2022-07-11T03:24:28;7.20;;;1.93;;
18999;SDS011;9633;50.980;13.850;2022-07-11T03:26:00;4.37;;;1.80;;
18999;SDS011;9633;50.980;13.850;2022-07-11T03:27:34;3.33;;;1.80;;
18999;SDS011;9633;50.980;13.850;2022-07-11T03:29:08;3.77;;;1.67;;
18999;SDS011;9633;50.980;13.850;2022-07-11T03:30:42;4.33;;;1.70;;
18999;SDS011;9633;50.980;13.850;2022-07-11T03:32:15;4.27;;;2.00;;
18999;SDS011;9633;50.980;13.850;2022-07-11T03:33:59;5.43;;;1.60;;
18999;SDS011;9633;50.980;13.850;2022-07-11T03:35:31;6.40;;;1.63;;
18999;SDS011;9633;50.980;13.850;2022-07-11T03:37:13;3.60;;;2.10;;
18999;SDS011;9633;50.980;13.850;2022-07-11T03:38:47;5.67;;;2.00;;
18999;SDS011;9633;50.980;13.850;2022-07-11T03:40:19;7.27;;;2.00;;
18999;SDS011;9633;50.980;13.850;2022-07-11T03:41:52;7.23;;;1.90;;
18999;SDS011;9633;50.980;13.850;2022-07-11T03:43:26;3.93;;;1.70;;
18999;SDS011;9633;50.980;13.850;2022-07-11T03:45:01;7.67;;;1.97;;
18999;SDS011;9633;50.980;13.850;2022-07-11T03:46:34;5.17;;;1.80;;
18999;SDS011;9633;50.980;13.850;2022-07-11T03:48:06;3.33;;;1.70;;
18999;SDS011;9633;50.980;13.850;2022-07-11T03:49:40;8.60;;;2.73;;
18999;SDS011;9633;50.980;13.850;2022-07-11T03:51:13;5.43;;;1.77;;
18999;SDS011;9633;50.980;13.850;2022-07-11T03:52:48;7.00;;;1.70;;
18999;SDS011;9633;50.980;13.850;2022-07-11T03:54:20;3.27;;;1.63;;
18999;SDS011;9633;50.980;13.850;2022-07-11T03:55:53;5.70;;;1.80;;
18999;SDS011;9633;50.980;13.850;2022-07-11T03:57:25;8.53;;;2.20;;
18999;SDS011;9633;50.980;13.850;2022-07-11T03:58:59;7.40;;;2.00;;
18999;SDS011;9633;50.980;13.850;2022-07-11T04:00:34;5.83;;;1.57;;
18999;SDS011;9633;50.980;13.850;2022-07-11T04:02:06;4.70;;;1.67;;
18999;SDS011;9633;50.980;13.850;2022-07-11T04:03:39;4.70;;;1.77;;
18999;SDS011;9633;50.980;13.850;2022-07-11T04:05:13;5.77;;;2.10;;
18999;SDS011;9633;50.980;13.850;2022-07-11T04:06:46;4.20;;;1.77;;
18999;SDS011;9633;50.980;13.850;2022-07-11T04:08:19;4.87;;;1.70;;
18999;SDS011;9633;50.980;13.850;2022-07-11T04:09:52;3.43;;;1.73;;
18999;SDS011;9633;50.980;13.850;2022-07-11T04:11:25;7.00;;;2.03;;
18999;SDS011;9633;50.980;13.850;2022-07-11T04:12:59;6.67;;;1.80;;
18999;SDS011;9633;50.980;13.850;2022-07-11T04:14:31;4.10;;;1.80;;
18999;SDS011;9633;50.980;13.850;2022-07-11T04:16:06;12.53;;;2.13;;
18999;SDS011;9633;50.980;13.850;2022-07-11T04:17:39;4.63;;;1.83;;
18999;SDS011;9633;50.980;13.850;2022-07-11T04:19:12;7.97;;;1.93;;
18999;SDS011;9633;50.980;13.850;2022-07-11T04:20:46;4.63;;;1.60;;
18999;SDS011;9633;50.980;13.850;2022-07-11T04:22:20;4.43;;;1.70;;
18999;SDS011;9633;50.980;13.850;2022-07-11T04:23:54;6.83;;;1.83;;
18999;SDS011;9633;50.980;13.850;2022-07-11T04:25:27;6.17;;;1.90;;
18999;SDS011;9633;50.980;13.850;2022-07-11T04:27:00;7.37;;;1.70;;
18999;SDS011;9633;50.980;13.850;2022-07-11T04:28:33;6.07;;;1.93;;
18999;SDS011;9633;50.980;13.850;2022-07-11T04:30:07;6.40;;;1.70;;
18999;SDS011;9633;50.980;13.850;2022-07-11T04:31:42;3.63;;;1.67;;
18999;SDS011;9633;50.980;13.850;2022-07-11T04:33:16;5.07;;;1.70;;
18999;SDS011;9633;50.980;13.850;2022-07-11T04:34:49;5.03;;;1.80;;
18999;SDS011;9633;50.980;13.850;2022-07-11T04:36:22;5.73;;;1.80;;
18999;SDS011;9633;50.980;13.850;2022-07-11T04:37:55;5.27;;;1.80;;
18999;SDS011;9633;50.980;13.850;2022-07-11T04:39:29;4.63;;;2.00;;
18999;SDS011;9633;50.980;13.850;2022-07-11T04:41:01;6.10;;;1.97;;
18999;SDS011;9633;50.980;13.850;2022-07-11T04:42:34;4.37;;;1.80;;
18999;SDS011;9633;50.980;13.850;2022-07-11T04:44:06;6.37;;;1.97;;
18999;SDS011;9633;50.980;13.850;2022-07-11T04:45:40;3.33;;;1.50;;
18999;SDS011;9633;50.980;13.850;2022-07-11T04:47:14;5.73;;;2.07;;
18999;SDS011;9633;50.980;13.850;2022-07-11T04:48:48;5.27;;;2.30;;
18999;SDS011;9633;50.980;13.850;2022-07-11T04:50:21;6.17;;;1.80;;
18999;SDS011;9633;50.980;13.850;2022-07-11T04:51:55;5.07;;;1.67;;
18999;SDS011;9633;50.980;13.850;2022-07-11T04:53:33;4.70;;;1.80;;
18999;SDS011;9633;50.980;13.850;2022-07-11T04:55:07;6.50;;;2.00;;
18999;SDS011;9633;50.980;13.850;2022-07-11T04:56:40;4.77;;;1.70;;
18999;SDS011;9633;50.980;13.850;2022-07-11T04:58:13;4.63;;;1.60;;
18999;SDS011;9633;50.980;13.850;2022-07-11T04:59:47;4.43;;;2.07;;
18999;SDS011;9633;50.980;13.850;2022-07-11T05:01:19;4.97;;;1.70;;
18999;SDS011;9633;50.980;13.850;2022-07-11T05:02:54;4.23;;;1.57;;
18999;SDS011;9633;50.980;13.850;2022-07-11T05:04:27;5.30;;;1.80;;
18999;SDS011;9633;50.980;13.850;2022-07-11T05:05:59;5.80;;;1.73;;
18999;SDS011;9633;50.980;13.850;2022-07-11T05:07:33;9.63;;;1.70;;
18999;SDS011;9633;50.980;13.850;2022-07-11T05:09:05;6.83;;;2.17;;
18999;SDS011;9633;50.980;13.850;2022-07-11T05:10:39;7.43;;;1.90;;
18999;SDS011;9633;50.980;13.850;2022-07-11T05:12:12;5.83;;;1.70;;
18999;SDS011;9633;50.980;13.850;2022-07-11T05:13:45;6.80;;;2.10;;
18999;SDS011;9633;50.980;13.850;2022-07-11T05:15:19;4.07;;;1.80;;
18999;SDS011;9633;50.980;13.850;2022-07-11T05:16:52;6.67;;;1.83;;
18999;SDS011;9633;50.980;13.850;2022-07-11T05:18:26;4.87;;;1.53;;
18999;SDS011;9633;50.980;13.850;2022-07-11T05:19:59;3.80;;;1.60;;
18999;SDS011;9633;50.980;13.850;2022-07-11T05:21:32;8.57;;;1.70;;
18999;SDS011;9633;50.980;13.850;2022-07-11T05:23:04;6.17;;;1.43;;
18999;SDS011;9633;50.980;13.850;2022-07-11T05:24:38;4.20;;;2.17;;
18999;SDS011;9633;50.980;13.850;2022-07-11T05:26:11;7.23;;;2.60;;
18999;SDS011;9633;50.980;13.850;2022-07-11T05:27:48;9.17;;;1.97;;
18999;SDS011;9633;50.980;13.850;2022-07-11T05:29:21;6.23;;;2.27;;
18999;SDS011;9633;50.980;13.850;2022-07-11T05:30:54;6.90;;;2.03;;
18999;SDS011;9633;50.980;13.850;2022-07-11T05:32:27;8.50;;;2.17;;
18999;SDS011;9633;50.980;13.850;2022-07-11T05:34:08;5.87;;;1.80;;
18999;SDS011;9633;50.980;13.850;2022-07-11T05:35:41;8.10;;;1.87;;
18999;SDS011;9633;50.980;13.850;2022-07-11T05:37:14;4.77;;;1.93;;
18999;SDS011;9633;50.980;13.850;2022-07-11T05:38:47;8.87;;;1.90;;
18999;SDS011;9633;50.980;13.850;2022-07-11T05:40:20;5.63;;;1.60;;
18999;SDS011;9633;50.980;13.850;2022-07-11T05:41:54;5.27;;;1.70;;
18999;SDS011;9633;50.980;13.850;2022-07-11T05:43:26;7.40;;;2.00;;
18999;SDS011;9633;50.980;13.850;2022-07-11T05:45:00;5.80;;;1.77;;
18999;SDS011;9633;50.980;13.850;2022-07-11T05:46:33;7.10;;;1.70;;
18999;SDS011;9633;50.980;13.850;2022-07-11T05:48:09;4.40;;;1.40;;
18999;SDS011;9633;50.980;13.850;2022-07-11T05:49:44;8.83;;;2.00;;
18999;SDS011;9633;50.980;13.850;2022-07-11T05:51:17;6.50;;;1.70;;
18999;SDS011;9633;50.980;13.850;2022-07-11T05:52:50;5.90;;;1.77;;
18999;SDS011;9633;50.980;13.850;2022-07-11T05:54:23;5.23;;;1.47;;
18999;SDS011;9633;50.980;13.850;2022-07-11T05:55:56;4.60;;;1.63;;
18999;SDS011;9633;50.980;13.850;2022-07-11T05:57:29;6.47;;;1.57;;
18999;SDS011;9633;50.980;13.850;2022-07-11T05:59:02;7.53;;;1.90;;
18999;SDS011;9633;50.980;13.850;2022-07-11T06:00:35;6.77;;;1.70;;
18999;SDS011;9633;50.980;13.850;2022-07-11T06:02:08;6.20;;;1.70;;
18999;SDS011;9633;50.980;13.850;2022-07-11T06:03:42;4.57;;;1.90;;
18999;SDS011;9633;50.980;13.850;2022-07-11T06:05:16;5.10;;;1.57;;
18999;SDS011;9633;50.980;13.850;2022-07-11T06:06:49;5.13;;;1.90;;
18999;SDS011;9633;50.980;13.850;2022-07-11T06:08:22;7.40;;;2.00;;
18999;SDS011;9633;50.980;13.850;2022-07-11T06:10:12;6.40;;;1.63;;
18999;SDS011;9633;50.980;13.850;2022-07-11T06:11:46;6.27;;;1.70;;
18999;SDS011;9633;50.980;13.850;2022-07-11T06:13:19;8.50;;;1.90;;
18999;SDS011;9633;50.980;13.850;2022-07-11T06:14:52;7.37;;;1.90;;
18999;SDS011;9633;50.980;13.850;2022-07-11T06:16:25;5.80;;;1.63;;
18999;SDS011;9633;50.980;13.850;2022-07-11T06:17:59;7.87;;;1.63;;
18999;SDS011;9633;50.980;13.850;2022-07-11T06:19:32;5.63;;;1.60;;
18999;SDS011;9633;50.980;13.850;2022-07-11T06:21:07;7.80;;;1.87;;
18999;SDS011;9633;50.980;13.850;2022-07-11T06:22:40;6.60;;;1.60;;
18999;SDS011;9633;50.980;13.850;2022-07-11T06:24:13;6.07;;;1.60;;
18999;SDS011;9633;50.980;13.850;2022-07-11T06:25:46;5.93;;;2.00;;
18999;SDS011;9633;50.980;13.850;2022-07-11T06:27:20;7.00;;;1.43;;
18999;SDS011;9633;50.980;13.850;2022-07-11T06:28:53;6.43;;;1.47;;
18999;SDS011;9633;50.980;13.850;2022-07-11T06:30:26;6.37;;;1.60;;
18999;SDS011;9633;50.980;13.850;2022-07-11T06:31:59;4.83;;;1.40;;
18999;SDS011;9633;50.980;13.850;2022-07-11T06:33:33;3.87;;;1.40;;
18999;SDS011;9633;50.980;13.850;2022-07-11T06:35:07;6.03;;;1.80;;
18999;SDS011;9633;50.980;13.850;2022-07-11T06:36:42;6.67;;;1.60;;
18999;SDS011;9633;50.980;13.850;2022-07-11T06:38:15;6.53;;;1.80;;
18999;SDS011;9633;50.980;13.850;2022-07-11T06:39:48;7.23;;;1.77;;
18999;SDS011;9633;50.980;13.850;2022-07-11T06:41:21;4.57;;;1.40;;
18999;SDS011;9633;50.980;13.850;2022-07-11T06:42:53;4.27;;;1.50;;
18999;SDS011;9633;50.980;13.850;2022-07-11T06:44:28;6.67;;;1.93;;
18999;SDS011;9633;50.980;13.850;2022-07-11T06:46:01;5.63;;;1.30;;
18999;SDS011;9633;50.980;13.850;2022-07-11T06:47:34;4.80;;;1.20;;
18999;SDS011;9633;50.980;13.850;2022-07-11T06:49:07;5.43;;;1.40;;
18999;SDS011;9633;50.980;13.850;2022-07-11T06:50:44;4.00;;;1.27;;
18999;SDS011;9633;50.980;13.850;2022-07-11T06:52:18;5.30;;;1.20;;
18999;SDS011;9633;50.980;13.850;2022-07-11T06:53:51;4.07;;;1.40;;
18999;SDS011;9633;50.980;13.850;2022-07-11T06:55:25;5.33;;;1.63;;
18999;SDS011;9633;50.980;13.850;2022-07-11T06:56:58;9.77;;;1.60;;
18999;SDS011;9633;50.980;13.850;2022-07-11T06:58:31;6.30;;;1.67;;
18999;SDS011;9633;50.980;13.850;2022-07-11T07:00:05;6.77;;;1.40;;
18999;SDS011;9633;50.980;13.850;2022-07-11T07:01:39;7.03;;;1.43;;
18999;SDS011;9633;50.980;13.850;2022-07-11T07:03:14;6.07;;;1.27;;
18999;SDS011;9633;50.980;13.850;2022-07-11T07:04:51;4.93;;;1.50;;
18999;SDS011;9633;50.980;13.850;2022-07-11T07:06:24;6.47;;;1.50;;
18999;SDS011;9633;50.980;13.850;2022-07-11T07:07:59;6.50;;;1.30;;
18999;SDS011;9633;50.980;13.850;2022-07-11T07:09:32;2.27;;;1.20;;
18999;SDS011;9633;50.980;13.850;2022-07-11T07:11:05;6.63;;;1.30;;
18999;SDS011;9633;50.980;13.850;2022-07-11T07:12:39;5.07;;;1.33;;
18999;SDS011;9633;50.980;13.850;2022-07-11T07:14:12;6.57;;;1.40;;
18999;SDS011;9633;50.980;13.850;2022-07-11T07:15:46;5.10;;;1.50;;
18999;SDS011;9633;50.980;13.850;2022-07-11T07:17:19;5.00;;;1.23;;
18999;SDS011;9633;50.980;13.850;2022-07-11T07:18:52;3.73;;;1.23;;
18999;SDS011;9633;50.980;13.850;2022-07-11T07:20:26;6.13;;;1.47;;
18999;SDS011;9633;50.980;13.850;2022-07-11T07:21:59;8.03;;;1.50;;
18999;SDS011;9633;50.980;13.850;2022-07-11T07:23:34;2.30;;;1.23;;
18999;SDS011;9633;50.980;13.850;2022-07-11T07:25:07;3.93;;;1.40;;
18999;SDS011;9633;50.980;13.850;2022-07-11T07:26:41;5.63;;;1.33;;
18999;SDS011;9633;50.980;13.850;2022-07-11T07:28:14;4.63;;;1.47;;
18999;SDS011;9633;50.980;13.850;2022-07-11T07:29:48;5.80;;;1.43;;
18999;SDS011;9633;50.980;13.850;2022-07-11T07:31:21;4.10;;;1.07;;
18999;SDS011;9633;50.980;13.850;2022-07-11T07:32:54;3.93;;;1.17;;
18999;SDS011;9633;50.980;13.850;2022-07-11T07:34:27;5.47;;;1.60;;
18999;SDS011;9633;50.980;13.850;2022-07-11T07:36:01;3.23;;;1.27;;
18999;SDS011;9633;50.980;13.850;2022-07-11T07:37:34;5.00;;;1.57;;
18999;SDS011;9633;50.980;13.850;2022-07-11T07:39:08;4.17;;;1.27;;
18999;SDS011;9633;50.980;13.850;2022-07-11T07:40:42;5.67;;;1.50;;
18999;SDS011;9633;50.980;13.850;2022-07-11T07:42:15;3.77;;;1.37;;
18999;SDS011;9633;50.980;13.850;2022-07-11T07:43:48;3.47;;;1.00;;
18999;SDS011;9633;50.980;13.850;2022-07-11T07:45:22;3.50;;;1.23;;
18999;SDS011;9633;50.980;13.850;2022-07-11T07:46:56;3.37;;;1.20;;
18999;SDS011;9633;50.980;13.850;2022-07-11T07:48:29;7.60;;;1.47;;
18999;SDS011;9633;50.980;13.850;2022-07-11T07:50:05;4.00;;;1.40;;
18999;SDS011;9633;50.980;13.850;2022-07-11T07:51:39;3.13;;;1.30;;
18999;SDS011;9633;50.980;13.850;2022-07-11T07:53:12;6.87;;;1.30;;
18999;SDS011;9633;50.980;13.850;2022-07-11T07:54:47;3.63;;;1.20;;
18999;SDS011;9633;50.980;13.850;2022-07-11T07:56:20;4.57;;;1.40;;
18999;SDS011;9633;50.980;13.850;2022-07-11T07:57:53;4.70;;;1.27;;
18999;SDS011;9633;50.980;13.850;2022-07-11T07:59:26;4.03;;;0.90;;
18999;SDS011;9633;50.980;13.850;2022-07-11T08:00:59;5.03;;;1.00;;
18999;SDS011;9633;50.980;13.850;2022-07-11T08:02:50;4.40;;;1.03;;
18999;SDS011;9633;50.980;13.850;2022-07-11T08:04:23;3.93;;;1.10;;
18999;SDS011;9633;50.980;13.850;2022-07-11T08:05:56;4.53;;;1.20;;
18999;SDS011;9633;50.980;13.850;2022-07-11T08:07:30;4.43;;;1.17;;
18999;SDS011;9633;50.980;13.850;2022-07-11T08:09:02;3.93;;;1.10;;
18999;SDS011;9633;50.980;13.850;2022-07-11T08:10:37;4.90;;;1.10;;
18999;SDS011;9633;50.980;13.850;2022-07-11T08:12:10;4.87;;;1.20;;
18999;SDS011;9633;50.980;13.850;2022-07-11T08:13:43;8.77;;;1.53;;
18999;SDS011;9633;50.980;13.850;2022-07-11T08:15:16;21.97;;;1.97;;
18999;SDS011;9633;50.980;13.850;2022-07-11T08:16:50;2.60;;;1.20;;
18999;SDS011;9633;50.980;13.850;2022-07-11T08:18:23;2.53;;;1.20;;
18999;SDS011;9633;50.980;13.850;2022-07-11T08:19:58;4.13;;;1.40;;
18999;SDS011;9633;50.980;13.850;2022-07-11T08:21:33;3.83;;;1.47;;
18999;SDS011;9633;50.980;13.850;2022-07-11T08:23:06;4.33;;;1.30;;
18999;SDS011;9633;50.980;13.850;2022-07-11T08:24:40;4.53;;;1.27;;
18999;SDS011;9633;50.980;13.850;2022-07-11T08:26:14;2.40;;;1.00;;
18999;SDS011;9633;50.980;13.850;2022-07-11T08:27:47;7.53;;;1.50;;
18999;SDS011;9633;50.980;13.850;2022-07-11T08:29:20;4.37;;;1.17;;
18999;SDS011;9633;50.980;13.850;2022-07-11T08:30:54;1.93;;;0.90;;
18999;SDS011;9633;50.980;13.850;2022-07-11T08:32:27;2.60;;;1.03;;
18999;SDS011;9633;50.980;13.850;2022-07-11T08:34:00;3.90;;;0.90;;
18999;SDS011;9633;50.980;13.850;2022-07-11T08:35:33;3.90;;;1.10;;
18999;SDS011;9633;50.980;13.850;2022-07-11T08:37:07;5.70;;;1.23;;
18999;SDS011;9633;50.980;13.850;2022-07-11T08:38:40;3.47;;;1.20;;
18999;SDS011;9633;50.980;13.850;2022-07-11T08:40:17;3.60;;;1.07;;
18999;SDS011;9633;50.980;13.850;2022-07-11T08:41:52;4.70;;;1.30;;
18999;SDS011;9633;50.980;13.850;2022-07-11T08:43:27;2.87;;;1.10;;
18999;SDS011;9633;50.980;13.850;2022-07-11T08:45:01;3.07;;;1.30;;
18999;SDS011;9633;50.980;13.850;2022-07-11T08:46:34;4.10;;;1.37;;
18999;SDS011;9633;50.980;13.850;2022-07-11T08:48:10;3.87;;;1.10;;
18999;SDS011;9633;50.980;13.850;2022-07-11T08:49:45;2.30;;;1.00;;
18999;SDS011;9633;50.980;13.850;2022-07-11T08:51:18;3.67;;;1.23;;
18999;SDS011;9633;50.980;13.850;2022-07-11T08:52:54;2.60;;;1.07;;
18999;SDS011;9633;50.980;13.850;2022-07-11T08:54:29;2.47;;;0.90;;
18999;SDS011;9633;50.980;13.850;2022-07-11T08:56:03;3.53;;;1.10;;
18999;SDS011;9633;50.980;13.850;2022-07-11T08:57:39;2.43;;;0.83;;
18999;SDS011;9633;50.980;13.850;2022-07-11T08:59:13;5.17;;;0.97;;
18999;SDS011;9633;50.980;13.850;2022-07-11T09:00:49;4.80;;;1.30;;
18999;SDS011;9633;50.980;13.850;2022-07-11T09:02:23;2.87;;;1.23;;
18999;SDS011;9633;50.980;13.850;2022-07-11T09:03:57;4.60;;;1.30;;
18999;SDS011;9633;50.980;13.850;2022-07-11T09:05:31;2.67;;;1.20;;
18999;SDS011;9633;50.980;13.850;2022-07-11T09:07:04;2.00;;;0.90;;
18999;SDS011;9633;50.980;13.850;2022-07-11T09:08:38;5.03;;;1.23;;
18999;SDS011;9633;50.980;13.850;2022-07-11T09:10:11;3.90;;;1.27;;
18999;SDS011;9633;50.980;13.850;2022-07-11T09:11:49;5.37;;;1.37;;
18999;SDS011;9633;50.980;13.850;2022-07-11T09:13:27;5.00;;;1.40;;
18999;SDS011;9633;50.980;13.850;2022-07-11T09:15:02;4.83;;;1.40;;
18999;SDS011;9633;50.980;13.850;2022-07-11T09:16:37;2.50;;;1.20;;
18999;SDS011;9633;50.980;13.850;2022-07-11T09:18:32;5.13;;;1.70;;
18999;SDS011;9633;50.980;13.850;2022-07-11T09:20:07;4.57;;;1.20;;
18999;SDS011;9633;50.980;13.850;2022-07-11T09:21:55;2.40;;;0.87;;
18999;SDS011;9633;50.980;13.850;2022-07-11T09:23:50;4.30;;;1.37;;
18999;SDS011;9633;50.980;13.850;2022-07-11T09:25:54;4.73;;;1.40;;
18999;SDS011;9633;50.980;13.850;2022-07-11T09:27:35;4.13;;;1.07;;